Time;durP1;ratioP1;P1;durP2;ratioP2;P2;SDS_P1;SDS_P2;PMS_P1;PMS_P2;Temp;Humidity;BMP_temperature;BMP_pressure;BME280_temperature;BME280_humidity;BME280_pressure;Samples;Min_cycle;Max_cycle;Signal;HPM_P1;HPM_P2
2024/01/21 00:01:42;;;;;;;62.25;28.98;;;-3.30;99.90;;;;;;5013652;28;20174;-44
2024/01/21 00:04:08;;;;;;;67.35;30.48;;;-3.30;99.90;;;;;;5013318;28;20041;-51
2024/01/21 00:06:34;;;;;;;68.05;29.98;;;-3.10;99.90;;;;;;5013242;28;20021;-45
2024/01/21 00:09:00;;;;;;;62.10;29.55;;;-3.10;99.90;;;;;;5013445;28;20037;-48
2024/01/21 00:11:25;;;;;;;69.97;32.03;;;-3.10;99.90;;;;;;5012083;28;20022;-46
2024/01/21 00:13:51;;;;;;;65.22;31.88;;;-3.00;99.90;;;;;;5013337;28;20479;-44
2024/01/21 00:16:16;;;;;;;62.53;30.52;;;-3.00;99.90;;;;;;5013389;28;20543;-45
2024/01/21 00:18:42;;;;;;;71.03;31.15;;;-3.00;99.90;;;;;;5011891;28;20403;-50
2024/01/21 00:21:07;;;;;;;66.22;29.27;;;-3.00;99.90;;;;;;5012996;28;20030;-45
2024/01/21 00:23:33;;;;;;;68.53;31.48;;;-3.00;99.90;;;;;;5011897;28;20068;-43
2024/01/21 00:25:58;;;;;;;74.10;31.55;;;-3.10;99.90;;;;;;5013087;28;20030;-48
2024/01/21 00:28:24;;;;;;;65.70;30.83;;;-3.10;99.90;;;;;;5012888;28;20029;-43
2024/01/21 00:30:50;;;;;;;71.20;32.38;;;-3.10;99.90;;;;;;5011909;28;20088;-43
2024/01/21 00:33:16;;;;;;;62.08;29.42;;;-3.10;99.90;;;;;;5013002;28;20026;-44
2024/01/21 00:35:41;;;;;;;63.75;29.25;;;-3.10;99.90;;;;;;5011565;28;20026;-46
2024/01/21 00:38:07;;;;;;;62.72;28.98;;;-3.40;99.90;;;;;;5012574;28;20033;-50
2024/01/21 00:40:33;;;;;;;56.25;28.60;;;-3.40;99.90;;;;;;5013354;28;20034;-44
2024/01/21 00:42:59;;;;;;;61.28;28.95;;;-3.40;99.90;;;;;;5012955;28;20464;-48
2024/01/21 00:45:26;;;;;;;51.55;27.48;;;-3.40;99.90;;;;;;5009122;28;20054;-43
2024/01/21 00:47:51;;;;;;;57.22;27.77;;;-3.40;99.90;;;;;;5007950;28;20125;-45
2024/01/21 00:50:17;;;;;;;66.78;30.38;;;-3.50;99.90;;;;;;5008129;28;20090;-46
2024/01/21 00:52:42;;;;;;;57.70;28.13;;;-3.50;99.90;;;;;;4992842;28;20069;-45
2024/01/21 00:55:08;;;;;;;57.72;28.10;;;-3.50;99.90;;;;;;4993072;28;20030;-48
2024/01/21 00:57:34;;;;;;;62.22;28.60;;;-3.60;99.90;;;;;;4992785;28;20023;-45
2024/01/21 00:59:59;;;;;;;51.03;25.80;;;-3.70;99.90;;;;;;4993214;28;20034;-44
2024/01/21 01:02:25;;;;;;;53.67;26.52;;;-3.70;99.90;;;;;;4993158;28;20499;-44
2024/01/21 01:04:50;;;;;;;66.25;30.90;;;-3.70;99.90;;;;;;4992917;28;20034;-47
2024/01/21 01:07:15;;;;;;;63.97;29.80;;;-3.70;99.90;;;;;;4991958;28;20029;-51
2024/01/21 01:09:41;;;;;;;62.80;29.42;;;-3.70;99.90;;;;;;4992676;28;20026;-44
2024/01/21 01:12:07;;;;;;;65.10;29.58;;;-3.60;99.90;;;;;;4993202;28;20392;-47
2024/01/21 01:14:33;;;;;;;75.13;30.55;;;-3.70;99.90;;;;;;4993354;28;20037;-46
2024/01/21 01:16:58;;;;;;;72.47;28.63;;;-3.70;99.90;;;;;;4992436;28;20031;-47
2024/01/21 01:19:24;;;;;;;237.20;106.47;;;-3.70;99.90;;;;;;4992578;28;20022;-44
2024/01/21 01:21:50;;;;;;;105.72;48.17;;;-3.70;99.90;;;;;;4992960;28;20036;-44
2024/01/21 01:24:16;;;;;;;71.97;30.83;;;-3.70;99.90;;;;;;4992542;28;20105;-45
2024/01/21 01:26:42;;;;;;;64.03;30.27;;;-3.80;99.90;;;;;;4991324;28;20474;-45
2024/01/21 01:29:07;;;;;;;74.13;31.58;;;-3.70;99.90;;;;;;4992363;28;20451;-43
2024/01/21 01:31:33;;;;;;;70.70;31.15;;;-3.70;99.90;;;;;;4992326;28;20379;-46
2024/01/21 01:33:59;;;;;;;64.55;29.00;;;-3.70;99.90;;;;;;4989641;28;20421;-50
2024/01/21 01:36:24;;;;;;;65.40;30.23;;;-3.80;99.90;;;;;;4991708;28;20365;-43
2024/01/21 01:38:50;;;;;;;71.47;30.50;;;-3.80;99.90;;;;;;4992385;28;20037;-45
2024/01/21 01:41:15;;;;;;;70.72;33.08;;;-3.80;99.90;;;;;;4992266;28;20100;-45
2024/01/21 01:43:41;;;;;;;60.80;27.13;;;-3.80;99.90;;;;;;4992197;28;20059;-49
2024/01/21 01:46:07;;;;;;;63.88;28.45;;;-3.80;99.90;;;;;;4992049;28;20030;-43
2024/01/21 01:48:33;;;;;;;79.13;33.58;;;-3.90;99.90;;;;;;4990615;28;20109;-44
2024/01/21 01:51:00;;;;;;;93.80;42.28;;;-3.90;99.90;;;;;;4991976;28;20109;-43
2024/01/21 01:53:28;;;;;;;79.85;34.63;;;-4.00;99.90;;;;;;4991988;28;20109;-46
2024/01/21 01:55:54;;;;;;;76.65;31.27;;;-4.00;99.90;;;;;;4991896;28;20022;-45
2024/01/21 01:58:21;;;;;;;65.70;29.35;;;-4.00;99.90;;;;;;4991692;28;20384;-46
2024/01/21 02:00:47;;;;;;;73.85;30.75;;;-4.00;99.90;;;;;;4992005;28;20559;-43
2024/01/21 02:03:14;;;;;;;68.75;29.00;;;-4.10;99.90;;;;;;4992265;28;20125;-45
2024/01/21 02:05:39;;;;;;;72.95;29.63;;;-4.10;99.90;;;;;;4991959;28;20121;-46
2024/01/21 02:08:05;;;;;;;67.25;29.73;;;-4.10;99.90;;;;;;4990429;28;20109;-46
2024/01/21 02:10:31;;;;;;;64.13;30.23;;;-3.90;99.90;;;;;;4991525;28;20023;-46
2024/01/21 02:12:56;;;;;;;62.53;29.13;;;-3.90;99.90;;;;;;4991719;28;20026;-48
2024/01/21 02:15:22;;;;;;;62.38;27.83;;;-4.30;99.90;;;;;;4991840;28;20038;-46
2024/01/21 02:17:48;;;;;;;64.38;28.23;;;-4.30;99.90;;;;;;4991499;28;20026;-44
2024/01/21 02:20:13;;;;;;;69.45;30.70;;;-4.40;99.90;;;;;;4991781;28;20163;-45
2024/01/21 02:22:40;;;;;;;73.38;30.25;;;-4.30;99.90;;;;;;4991745;28;20038;-46
2024/01/21 02:25:09;;;;;;;67.40;29.42;;;-4.40;99.90;;;;;;5006750;28;20037;-45
2024/01/21 02:27:36;;;;;;;64.78;29.92;;;-4.50;99.90;;;;;;4991461;28;20582;-48
2024/01/21 02:30:02;;;;;;;73.97;32.63;;;-4.60;99.90;;;;;;4990514;28;20030;-44
2024/01/21 02:32:28;;;;;;;70.97;31.92;;;-4.70;99.90;;;;;;4991663;28;20033;-46
2024/01/21 02:34:53;;;;;;;68.88;29.50;;;-4.70;99.90;;;;;;5006673;28;20022;-49
2024/01/21 02:37:19;;;;;;;65.63;28.52;;;-4.70;99.90;;;;;;4991290;28;20040;-49
2024/01/21 02:39:44;;;;;;;62.35;27.90;;;-4.70;99.90;;;;;;4991528;28;20034;-46
2024/01/21 02:42:10;;;;;;;72.40;31.33;;;-4.80;99.90;;;;;;4991572;28;20026;-43
2024/01/21 02:44:36;;;;;;;64.78;28.33;;;-4.70;99.90;;;;;;4991838;28;20118;-43
2024/01/21 02:47:01;;;;;;;65.00;29.25;;;-4.70;99.90;;;;;;4991633;28;20395;-50
2024/01/21 02:49:28;;;;;;;68.82;29.67;;;-4.70;99.90;;;;;;5007841;28;20041;-43
2024/01/21 02:51:55;;;;;;;70.07;28.50;;;-4.60;99.90;;;;;;4991496;28;20050;-44
2024/01/21 02:54:21;;;;;;;65.05;29.27;;;-4.60;99.90;;;;;;5006382;28;20113;-45
2024/01/21 02:56:46;;;;;;;68.47;29.20;;;-4.70;99.90;;;;;;4991237;28;20097;-44
2024/01/21 02:59:12;;;;;;;69.05;30.02;;;-4.70;99.90;;;;;;5006558;28;20384;-46
2024/01/21 03:01:37;;;;;;;69.38;28.35;;;-4.60;99.90;;;;;;4991479;28;20034;-44
2024/01/21 03:04:03;;;;;;;71.65;29.58;;;-4.70;99.90;;;;;;4991286;28;20117;-46
2024/01/21 03:06:28;;;;;;;71.90;29.40;;;-4.60;99.90;;;;;;4991338;28;20038;-46
2024/01/21 03:08:54;;;;;;;60.50;27.52;;;-4.60;99.90;;;;;;4993700;28;20118;-44
2024/01/21 03:11:19;;;;;;;61.95;27.83;;;-4.60;99.90;;;;;;4994855;28;20042;-45
2024/01/21 03:13:45;;;;;;;64.60;29.58;;;-4.60;99.90;;;;;;4994901;28;20411;-45
2024/01/21 03:16:14;;;;;;;68.47;29.15;;;-4.50;99.90;;;;;;4993508;28;20029;-47
2024/01/21 03:18:40;;;;;;;62.13;26.90;;;-4.50;99.90;;;;;;5009598;28;20026;-45
2024/01/21 03:21:08;;;;;;;69.47;30.30;;;-4.30;99.90;;;;;;4995166;28;20471;-44
2024/01/21 03:23:34;;;;;;;62.30;28.50;;;-4.20;99.90;;;;;;4994401;28;20030;-42
2024/01/21 03:26:00;;;;;;;74.70;33.25;;;-1.30;99.90;;;;;;4994804;28;20532;-46
2024/01/21 03:28:25;;;;;;;65.78;29.52;;;-3.90;99.90;;;;;;4993048;28;20034;-45
2024/01/21 03:30:51;;;;;;;69.75;32.10;;;-4.00;99.90;;;;;;4994598;28;20510;-47
2024/01/21 03:33:16;;;;;;;66.00;31.13;;;-3.90;99.90;;;;;;4994381;28;20031;-44
2024/01/21 03:35:42;;;;;;;66.43;28.80;;;-3.90;99.90;;;;;;4994516;28;20031;-47
2024/01/21 03:38:07;;;;;;;68.78;30.05;;;-3.80;99.90;;;;;;4994057;28;20030;-47
2024/01/21 03:40:33;;;;;;;63.85;27.35;;;-3.70;99.90;;;;;;4994476;28;20667;-46
2024/01/21 03:42:58;;;;;;;64.53;29.30;;;-3.60;99.90;;;;;;5009356;28;20027;-46
2024/01/21 03:45:24;;;;;;;60.00;27.98;;;-3.70;99.90;;;;;;4994291;28;20038;-48
2024/01/21 03:47:49;;;;;;;67.68;30.75;;;-3.70;99.90;;;;;;4992692;28;20391;-43
2024/01/21 03:50:21;;;;;;;64.80;29.73;;;-3.60;99.90;;;;;;4994195;28;20027;-45
2024/01/21 03:52:47;;;;;;;65.13;30.40;;;-3.50;99.90;;;;;;5009045;28;20018;-45
2024/01/21 03:55:14;;;;;;;58.35;27.77;;;-3.50;99.90;;;;;;4994201;28;20018;-46
2024/01/21 03:57:40;;;;;;;62.20;28.73;;;-3.50;99.90;;;;;;4993815;28;20053;-50
2024/01/21 04:00:08;;;;;;;61.38;29.67;;;-3.50;99.90;;;;;;4994140;28;20058;-45
2024/01/21 04:02:34;;;;;;;56.88;28.83;;;-3.40;99.90;;;;;;4993850;28;20033;-45
2024/01/21 04:05:00;;;;;;;64.75;28.48;;;-3.30;99.90;;;;;;4993916;28;20570;-45
2024/01/21 04:07:26;;;;;;;58.35;27.38;;;-3.30;99.90;;;;;;4992179;28;20121;-45
2024/01/21 04:09:51;;;;;;;65.70;29.52;;;-3.30;99.90;;;;;;5008851;28;20510;-45
2024/01/21 04:12:16;;;;;;;56.42;28.17;;;-3.30;99.90;;;;;;4993532;28;20030;-46
2024/01/21 04:14:42;;;;;;;58.83;26.90;;;-3.30;99.90;;;;;;4993827;28;20031;-45
2024/01/21 04:17:08;;;;;;;60.75;28.63;;;-3.20;99.90;;;;;;4993466;28;20034;-47
2024/01/21 04:19:34;;;;;;;62.20;28.92;;;-3.20;99.90;;;;;;4992588;28;20041;-45
2024/01/21 04:22:00;;;;;;;59.40;28.15;;;-3.20;99.90;;;;;;4993553;28;20035;-44
2024/01/21 04:24:26;;;;;;;58.30;28.20;;;-3.10;99.90;;;;;;4993421;28;20117;-44
2024/01/21 04:26:51;;;;;;;63.45;30.33;;;-3.10;99.90;;;;;;4993357;28;20108;-44
2024/01/21 04:29:17;;;;;;;66.30;30.80;;;-3.10;99.90;;;;;;4993518;28;20054;-48
2024/01/21 04:31:46;;;;;;;62.95;29.25;;;-3.00;99.90;;;;;;4993452;28;20030;-45
2024/01/21 04:34:12;;;;;;;63.55;29.35;;;-2.90;99.90;;;;;;4993554;28;20500;-46
2024/01/21 04:36:37;;;;;;;58.13;28.73;;;-2.80;99.90;;;;;;4992836;28;20032;-42
2024/01/21 04:39:03;;;;;;;68.05;29.83;;;-2.80;99.90;;;;;;4993454;28;20141;-44
2024/01/21 04:41:28;;;;;;;75.10;32.03;;;-2.70;99.90;;;;;;4993281;28;20031;-46
2024/01/21 04:43:55;;;;;;;65.50;28.13;;;-2.70;99.90;;;;;;4993464;28;20046;-50
2024/01/21 04:46:21;;;;;;;62.53;27.88;;;-2.80;99.90;;;;;;4993168;28;20033;-47
2024/01/21 04:48:46;;;;;;;66.43;28.52;;;-2.80;99.90;;;;;;4993180;28;20034;-48
2024/01/21 04:51:12;;;;;;;64.28;27.77;;;-2.80;99.90;;;;;;4993050;28;20031;-47
2024/01/21 04:53:38;;;;;;;69.45;29.50;;;-2.90;99.90;;;;;;4992698;28;20023;-44
2024/01/21 04:56:04;;;;;;;62.83;27.98;;;-2.90;99.90;;;;;;4994656;28;20204;-46
2024/01/21 04:58:30;;;;;;;64.57;26.88;;;-3.10;99.90;;;;;;4993677;28;20033;-44
2024/01/21 05:00:55;;;;;;;59.00;27.95;;;-3.20;99.90;;;;;;4994458;28;20388;-45
2024/01/21 05:03:21;;;;;;;62.88;26.35;;;-3.20;99.90;;;;;;4996527;28;20042;-44
2024/01/21 05:05:47;;;;;;;61.72;27.70;;;-3.20;99.90;;;;;;4994307;28;20030;-43
2024/01/21 05:08:13;;;;;;;69.85;28.17;;;-3.20;99.90;;;;;;4993592;28;20121;-44
2024/01/21 05:10:39;;;;;;;75.40;30.63;;;-3.40;99.90;;;;;;4993454;28;20113;-45
2024/01/21 05:13:04;;;;;;;66.70;27.55;;;-3.40;99.90;;;;;;4992943;28;20128;-43
2024/01/21 05:15:30;;;;;;;81.10;31.02;;;-3.50;99.90;;;;;;4993284;28;20023;-46
2024/01/21 05:17:56;;;;;;;67.32;27.02;;;-3.50;99.90;;;;;;4992734;28;20126;-45
2024/01/21 05:20:22;;;;;;;73.80;27.95;;;-3.50;99.90;;;;;;4992604;28;20514;-47
2024/01/21 05:22:49;;;;;;;66.95;29.40;;;-3.50;99.90;;;;;;5007617;28;20027;-46
2024/01/21 05:25:15;;;;;;;87.15;31.27;;;-3.50;99.90;;;;;;4992595;28;20026;-45
2024/01/21 05:27:41;;;;;;;71.05;29.65;;;-3.40;99.90;;;;;;4992353;28;20077;-45
2024/01/21 05:30:07;;;;;;;69.03;26.38;;;-3.30;99.90;;;;;;4992207;28;20026;-44
2024/01/21 05:32:32;;;;;;;70.38;26.67;;;-3.20;99.90;;;;;;4992555;28;20023;-44
2024/01/21 05:34:58;;;;;;;61.80;25.80;;;-3.20;99.90;;;;;;4992516;28;20660;-48
2024/01/21 05:37:23;;;;;;;66.88;24.67;;;-3.20;99.90;;;;;;4991962;28;20022;-45
2024/01/21 05:39:49;;;;;;;71.47;25.13;;;-3.30;99.90;;;;;;5007401;28;20106;-43
2024/01/21 05:42:14;;;;;;;70.32;25.92;;;-3.60;99.90;;;;;;4992280;28;20109;-45
2024/01/21 05:44:40;;;;;;;58.42;25.90;;;-3.80;99.90;;;;;;4990863;28;20038;-44
2024/01/21 05:47:05;;;;;;;61.45;23.77;;;-3.90;99.90;;;;;;4992042;28;20022;-45
2024/01/21 05:49:31;;;;;;;58.33;23.08;;;-4.00;99.90;;;;;;4992506;28;20069;-45
2024/01/21 05:51:57;;;;;;;57.78;22.83;;;-4.10;99.90;;;;;;4992111;28;20113;-46
2024/01/21 05:54:22;;;;;;;61.08;24.83;;;-4.20;99.90;;;;;;4992086;28;20033;-50
2024/01/21 05:56:48;;;;;;;60.95;24.45;;;-4.20;99.90;;;;;;4991903;28;20025;-46
2024/01/21 05:59:16;;;;;;;64.53;23.90;;;-4.20;99.90;;;;;;4991001;28;20033;-45
2024/01/21 06:01:42;;;;;;;63.40;23.33;;;-4.10;99.90;;;;;;4992221;28;20105;-47
2024/01/21 06:04:08;;;;;;;65.13;25.48;;;-4.00;99.90;;;;;;4991910;28;20146;-49
2024/01/21 06:06:33;;;;;;;60.08;22.13;;;-4.00;99.90;;;;;;4991829;28;20173;-46
2024/01/21 06:08:59;;;;;;;72.15;26.08;;;-4.00;99.90;;;;;;4991950;28;20042;-47
2024/01/21 06:11:26;;;;;;;64.57;25.67;;;-3.90;99.90;;;;;;4991938;28;20026;-44
2024/01/21 06:13:51;;;;;;;63.70;24.23;;;-4.00;99.90;;;;;;4991910;28;20022;-46
2024/01/21 06:16:17;;;;;;;60.15;24.35;;;-3.90;99.90;;;;;;4990300;28;20081;-44
2024/01/21 06:18:43;;;;;;;60.22;25.60;;;-3.90;99.90;;;;;;4991645;28;20114;-49
2024/01/21 06:21:08;;;;;;;72.72;27.45;;;-3.90;99.90;;;;;;4991879;28;20492;-45
2024/01/21 06:23:34;;;;;;;54.40;24.55;;;-4.00;99.90;;;;;;4991961;28;20399;-47
2024/01/21 06:25:59;;;;;;;75.95;27.38;;;-4.00;99.90;;;;;;5006793;28;20029;-44
2024/01/21 06:28:25;;;;;;;58.92;24.23;;;-4.10;99.90;;;;;;4991565;28;20062;-44
2024/01/21 06:30:50;;;;;;;64.50;24.60;;;-4.20;99.90;;;;;;4991565;28;20450;-46
2024/01/21 06:33:16;;;;;;;67.05;24.90;;;-4.30;99.90;;;;;;4991647;28;20045;-47
2024/01/21 06:35:41;;;;;;;59.38;25.70;;;-4.40;99.90;;;;;;4991607;28;20026;-46
2024/01/21 06:38:07;;;;;;;67.43;25.70;;;-4.40;99.90;;;;;;4991438;28;20050;-46
2024/01/21 06:40:33;;;;;;;71.03;28.08;;;-4.30;99.90;;;;;;4991953;28;20431;-46
2024/01/21 06:42:58;;;;;;;70.38;25.23;;;-4.40;99.90;;;;;;4992975;28;20435;-47
2024/01/21 06:45:24;;;;;;;68.70;24.05;;;-4.40;99.90;;;;;;4995614;28;20436;-45
2024/01/21 06:47:49;;;;;;;61.35;26.00;;;-4.40;99.90;;;;;;4995042;28;20069;-43
2024/01/21 06:50:15;;;;;;;66.90;27.10;;;-4.50;99.90;;;;;;4994868;28;20038;-45
2024/01/21 06:52:41;;;;;;;75.13;27.92;;;-4.50;99.90;;;;;;4993905;28;20064;-47
2024/01/21 06:55:06;;;;;;;68.65;25.95;;;-4.60;99.90;;;;;;4995276;28;20073;-44
2024/01/21 06:57:32;;;;;;;68.15;27.25;;;-4.60;99.90;;;;;;4993914;28;20081;-46
2024/01/21 06:59:58;;;;;;;73.72;29.05;;;-4.60;99.90;;;;;;4995302;28;20046;-44
2024/01/21 07:02:23;;;;;;;69.78;27.80;;;-4.60;99.90;;;;;;4994764;28;20022;-44
2024/01/21 07:04:49;;;;;;;82.57;32.42;;;-4.50;99.90;;;;;;4993887;28;20026;-46
2024/01/21 07:07:14;;;;;;;79.93;28.02;;;-4.40;99.90;;;;;;4994780;28;20034;-43
2024/01/21 07:09:41;;;;;;;78.50;30.27;;;-4.30;99.90;;;;;;4995244;28;20053;-47
2024/01/21 07:12:08;;;;;;;76.43;30.10;;;-4.30;99.90;;;;;;4994679;28;20029;-41
2024/01/21 07:14:34;;;;;;;81.20;30.73;;;-4.20;99.90;;;;;;4995019;28;20162;-47
2024/01/21 07:17:04;;;;;;;74.03;27.65;;;-4.30;99.90;;;;;;4994566;28;20031;-46
2024/01/21 07:19:29;;;;;;;86.88;31.77;;;-4.30;99.90;;;;;;5010013;28;20379;-45
2024/01/21 07:21:55;;;;;;;79.80;30.02;;;-4.20;99.90;;;;;;4993769;28;20110;-45
2024/01/21 07:24:20;;;;;;;79.28;30.58;;;-4.20;99.90;;;;;;4994547;28;20026;-44
2024/01/21 07:26:46;;;;;;;84.10;28.77;;;-4.00;99.90;;;;;;5009586;28;20526;-49
2024/01/21 07:29:13;;;;;;;92.93;30.60;;;-4.00;99.90;;;;;;4994858;28;20023;-46
2024/01/21 07:31:39;;;;;;;87.25;31.45;;;-3.90;99.90;;;;;;4994978;28;20057;-46
2024/01/21 07:34:09;;;;;;;92.93;30.92;;;-3.90;99.90;;;;;;4994764;28;20053;-50
2024/01/21 07:36:34;;;;;;;79.97;30.67;;;-3.60;99.90;;;;;;4994518;28;20073;-48
2024/01/21 07:39:00;;;;;;;89.20;33.45;;;-3.70;99.90;;;;;;5009841;28;20031;-49
2024/01/21 07:41:25;;;;;;;88.65;31.65;;;-3.30;99.90;;;;;;4994896;28;20054;-48
2024/01/21 07:43:51;;;;;;;89.32;31.23;;;-3.70;99.90;;;;;;4994614;28;20061;-46
2024/01/21 07:46:17;;;;;;;85.85;30.02;;;-3.70;99.90;;;;;;4993252;28;20053;-48
2024/01/21 07:48:42;;;;;;;83.90;29.95;;;-3.60;99.90;;;;;;4994279;28;20391;-45
2024/01/21 07:51:08;;;;;;;83.70;30.65;;;-3.60;99.90;;;;;;4994451;28;20483;-45
2024/01/21 07:53:33;;;;;;;79.85;29.75;;;-3.70;99.90;;;;;;4994582;28;20542;-46
2024/01/21 07:55:59;;;;;;;90.03;30.02;;;-3.70;99.90;;;;;;4994312;28;20034;-48
2024/01/21 07:58:24;;;;;;;88.90;32.65;;;-3.80;99.90;;;;;;5009111;28;20031;-44
2024/01/21 08:00:50;;;;;;;79.35;30.20;;;-3.90;99.90;;;;;;4994143;28;20400;-49
2024/01/21 08:03:15;;;;;;;89.10;30.40;;;-4.00;99.90;;;;;;5020344;23;20049;-52
2024/01/21 08:05:41;;;;;;;79.20;31.83;;;-4.00;99.90;;;;;;5024839;28;20482;-48
2024/01/21 08:08:06;;;;;;;82.68;29.88;;;-4.00;99.90;;;;;;5013633;28;20029;-52
2024/01/21 08:10:33;;;;;;;93.03;32.63;;;-3.90;99.90;;;;;;5014210;28;20026;-50
2024/01/21 08:12:59;;;;;;;71.43;27.92;;;-3.90;99.90;;;;;;5002418;28;20014;-50
2024/01/21 08:15:24;;;;;;;82.88;31.33;;;-3.90;99.90;;;;;;4994377;28;20042;-50
2024/01/21 08:17:50;;;;;;;105.65;35.08;;;-3.80;99.90;;;;;;4994086;28;20085;-54
2024/01/21 08:20:15;;;;;;;89.03;35.17;;;-3.70;99.90;;;;;;4993654;28;20054;-49
2024/01/21 08:22:43;;;;;;;83.03;32.63;;;-3.70;99.90;;;;;;4993226;28;20026;-48
2024/01/21 08:25:08;;;;;;;94.63;35.92;;;-3.80;99.90;;;;;;4994340;28;20015;-51
2024/01/21 08:27:34;;;;;;;101.57;36.03;;;-3.80;99.90;;;;;;4992772;28;20018;-48
2024/01/21 08:29:59;;;;;;;98.05;33.90;;;-3.90;99.90;;;;;;4994050;28;20220;-48
2024/01/21 08:32:25;;;;;;;89.70;34.28;;;-3.90;99.90;;;;;;4994001;28;20034;-50
2024/01/21 08:34:51;;;;;;;95.85;34.65;;;-3.80;99.90;;;;;;4993789;28;20014;-47
2024/01/21 08:37:16;;;;;;;89.10;35.90;;;-3.80;99.90;;;;;;4992271;28;20030;-52
2024/01/21 08:39:43;;;;;;;96.72;35.70;;;-3.60;99.90;;;;;;4994019;28;20492;-52
2024/01/21 08:42:08;;;;;;;90.95;31.65;;;-3.60;99.90;;;;;;4992535;28;20172;-49
2024/01/21 08:44:34;;;;;;;74.63;30.77;;;-3.60;99.90;;;;;;4992530;28;20109;-51
2024/01/21 08:46:59;;;;;;;89.60;33.08;;;-3.50;99.90;;;;;;4993516;28;20026;-51
2024/01/21 08:49:26;;;;;;;84.90;33.30;;;-3.40;99.90;;;;;;4992401;28;20029;-50
2024/01/21 08:51:51;;;;;;;78.15;30.80;;;-3.40;99.90;;;;;;4993753;28;20022;-51
2024/01/21 08:54:17;;;;;;;85.25;33.30;;;-3.40;99.90;;;;;;4993783;28;20400;-46
2024/01/21 08:56:42;;;;;;;81.82;29.80;;;-3.30;99.90;;;;;;4993007;28;20045;-48
2024/01/21 08:59:08;;;;;;;83.95;32.30;;;-3.20;99.90;;;;;;4993208;28;20030;-52
2024/01/21 09:01:33;;;;;;;79.55;32.38;;;-3.10;99.90;;;;;;4993172;28;20030;-56
2024/01/21 09:03:59;;;;;;;72.10;31.13;;;-2.80;99.90;;;;;;4993451;28;20038;-48
2024/01/21 09:06:24;;;;;;;81.70;31.17;;;-2.80;99.90;;;;;;4992717;28;20038;-50
2024/01/21 09:08:53;;;;;;;91.50;32.25;;;-2.80;99.90;;;;;;4992959;28;20057;-55
2024/01/21 09:11:20;;;;;;;82.63;32.70;;;-2.90;99.90;;;;;;4993264;28;20025;-50
2024/01/21 09:13:45;;;;;;;87.65;36.00;;;-2.80;99.90;;;;;;4991767;28;20495;-49
2024/01/21 09:16:16;;;;;;;78.60;31.58;;;-2.80;99.90;;;;;;4992973;28;20134;-50
2024/01/21 09:18:41;;;;;;;86.72;33.58;;;-2.60;99.90;;;;;;4993870;28;20018;-54
2024/01/21 09:21:07;;;;;;;96.75;33.65;;;-2.50;99.90;;;;;;4992363;28;20558;-50
2024/01/21 09:23:33;;;;;;;81.40;34.40;;;-2.50;99.90;;;;;;4993203;28;20081;-52
2024/01/21 09:25:58;;;;;;;88.25;34.65;;;-2.50;99.90;;;;;;4993092;28;20491;-54
2024/01/21 09:28:24;;;;;;;78.85;33.65;;;-2.50;99.90;;;;;;4992580;28;20093;-48
2024/01/21 09:30:49;;;;;;;80.30;30.92;;;-2.40;99.90;;;;;;4992937;28;20446;-48
2024/01/21 09:33:17;;;;;;;87.95;32.35;;;-2.30;99.90;;;;;;4993653;28;20036;-50
2024/01/21 09:35:42;;;;;;;71.70;30.42;;;-2.20;99.90;;;;;;4993113;28;20018;-51
2024/01/21 09:38:10;;;;;;;76.50;32.05;;;-2.20;99.90;;;;;;4992858;28;20033;-51
2024/01/21 09:40:36;;;;;;;88.45;34.38;;;-2.20;99.90;;;;;;4993463;28;20048;-52
2024/01/21 09:43:02;;;;;;;96.18;31.75;;;-2.10;99.90;;;;;;4992729;28;20026;-49
2024/01/21 09:45:31;;;;;;;81.50;34.20;;;-2.10;99.90;;;;;;4992611;28;20030;-53
2024/01/21 09:47:57;;;;;;;82.70;30.13;;;;;;;;;;4991104;28;20030;-48
2024/01/21 09:50:24;;;;;;;74.80;30.63;;;;;;;;;;4991106;28;20027;-55
2024/01/21 09:52:50;;;;;;;79.10;32.13;;;-1.70;99.90;;;;;;4992047;28;20030;-49
2024/01/21 09:55:16;;;;;;;83.30;34.20;;;;;;;;;;4991184;28;20117;-54
2024/01/21 09:57:41;;;;;;;76.70;29.30;;;-1.80;99.90;;;;;;4992721;28;20037;-54
2024/01/21 10:00:09;;;;;;;82.82;33.75;;;-1.90;99.90;;;;;;4992361;28;20475;-48
2024/01/21 10:02:35;;;;;;;81.78;32.35;;;-2.00;99.90;;;;;;4992145;28;20030;-48
2024/01/21 10:05:00;;;;;;;82.45;33.53;;;-2.10;99.90;;;;;;4995001;28;20479;-50
2024/01/21 10:07:26;;;;;;;90.03;32.85;;;-2.10;99.90;;;;;;4996136;28;20105;-51
2024/01/21 10:09:56;;;;;;;77.10;31.85;;;-2.10;99.90;;;;;;4996113;28;20037;-54
2024/01/21 10:12:24;;;;;;;87.13;34.92;;;-2.10;99.90;;;;;;4994788;28;20105;-48
2024/01/21 10:14:50;;;;;;;84.43;33.78;;;-2.10;99.90;;;;;;4991456;28;20030;-48
2024/01/21 10:17:15;;;;;;;93.53;35.78;;;-2.10;99.90;;;;;;4992161;28;20506;-47
2024/01/21 10:19:41;;;;;;;95.55;34.58;;;-2.20;99.90;;;;;;4996295;28;20018;-53
2024/01/21 10:22:14;;;;;;;82.15;36.28;;;-2.00;99.90;;;;;;4995054;28;20368;-49
2024/01/21 10:24:41;;;;;;;93.30;36.53;;;-2.00;99.90;;;;;;4996282;28;20496;-48
2024/01/21 10:27:08;;;;;;;83.10;31.67;;;-2.00;99.90;;;;;;4995927;28;20472;-51
2024/01/21 10:29:55;;;;;;;79.28;35.92;;;-1.90;99.90;;;;;;4996245;28;20559;-49
2024/01/21 10:32:21;;;;;;;97.93;36.38;;;-1.90;99.90;;;;;;4995050;28;20426;-49
2024/01/21 10:34:50;;;;;;;93.47;38.00;;;-1.80;99.90;;;;;;4996356;28;20022;-50
2024/01/21 10:37:16;;;;;;;97.75;40.00;;;-1.70;99.90;;;;;;4995847;28;20030;-49
2024/01/21 10:39:47;;;;;;;98.00;37.78;;;-1.70;99.90;;;;;;4996280;28;20038;-51
2024/01/21 10:42:14;;;;;;;89.45;38.65;;;-1.60;99.90;;;;;;4994782;28;20022;-51
2024/01/21 10:44:39;;;;;;;88.28;35.72;;;-1.50;99.90;;;;;;4995122;28;20122;-56
2024/01/21 10:47:07;;;;;;;90.50;35.72;;;-1.40;99.90;;;;;;4995703;28;20043;-55
2024/01/21 10:49:33;;;;;;;80.88;34.05;;;-1.30;99.90;;;;;;4996495;28;20120;-48
2024/01/21 10:52:00;;;;;;;88.05;36.90;;;-1.10;99.90;;;;;;4995516;28;20483;-48
2024/01/21 10:54:26;;;;;;;90.65;38.15;;;-1.10;99.90;;;;;;4995716;28;20074;-51
2024/01/21 10:56:52;;;;;;;80.80;35.13;;;-1.00;99.90;;;;;;5010829;28;20027;-56
2024/01/21 10:59:19;;;;;;;93.15;34.95;;;-1.00;99.90;;;;;;4995563;28;20036;-48
2024/01/21 11:01:45;;;;;;;84.90;34.63;;;-1.20;99.90;;;;;;4995560;28;20025;-52
2024/01/21 11:04:12;;;;;;;82.10;35.53;;;-1.20;99.90;;;;;;4995493;28;20077;-49
2024/01/21 11:06:44;;;;;;;117.05;53.13;;;-1.40;99.90;;;;;;4995576;28;20081;-47
2024/01/21 11:09:10;;;;;;;117.60;51.75;;;-1.40;99.90;;;;;;4995208;28;20023;-51
2024/01/21 11:11:44;;;;;;;74.35;33.05;;;-1.40;99.90;;;;;;4995181;28;20049;-48
2024/01/21 11:14:33;;;;;;;87.57;37.22;;;-1.50;99.90;;;;;;4994988;28;20023;-47
2024/01/21 11:17:00;;;;;;;75.68;35.60;;;-1.50;99.90;;;;;;4994832;28;20267;-46
2024/01/21 11:19:30;;;;;;;78.43;34.78;;;-1.70;99.90;;;;;;4995199;28;20102;-50
2024/01/21 11:21:56;;;;;;;75.78;33.47;;;-1.70;99.90;;;;;;4995175;28;20026;-49
2024/01/21 11:24:29;;;;;;;64.53;30.70;;;-1.60;99.90;;;;;;4993653;28;20077;-48
2024/01/21 11:26:56;;;;;;;65.65;31.25;;;-1.50;99.90;;;;;;4995385;28;20030;-50
2024/01/21 11:29:23;;;;;;;72.78;33.55;;;-1.50;99.90;;;;;;4994497;28;20114;-48
2024/01/21 11:31:50;;;;;;;74.63;32.33;;;-1.40;99.90;;;;;;4994807;28;20031;-51
2024/01/21 11:34:16;;;;;;;74.07;33.08;;;-1.40;99.90;;;;;;4994950;28;20037;-51
2024/01/21 11:36:43;;;;;;;69.40;30.17;;;-1.30;99.90;;;;;;4993973;28;20027;-51
2024/01/21 11:39:09;;;;;;;65.18;31.27;;;-1.20;99.90;;;;;;4995317;28;20065;-50
2024/01/21 11:41:41;;;;;;;63.10;30.92;;;-1.10;99.90;;;;;;4994352;28;20183;-49
2024/01/21 11:44:27;;;;;;;66.95;31.13;;;-0.90;99.90;;;;;;5009461;28;20103;-47
2024/01/21 11:46:55;;;;;;;58.40;28.27;;;-0.80;99.90;;;;;;4994502;28;20037;-50
2024/01/21 11:49:21;;;;;;;63.20;30.98;;;-0.60;99.90;;;;;;5009932;28;20038;-50
2024/01/21 11:51:47;;;;;;;60.97;30.73;;;-0.40;99.90;;;;;;4995046;28;20065;-47
2024/01/21 11:54:13;;;;;;;67.18;30.30;;;-0.30;99.90;;;;;;5010025;28;20022;-49
2024/01/21 11:56:40;;;;;;;58.38;28.88;;;-0.20;99.90;;;;;;4993267;28;20028;-58
2024/01/21 11:59:08;;;;;;;67.05;32.20;;;-0.20;99.90;;;;;;4994795;28;20030;-47
2024/01/21 12:01:34;;;;;;;60.72;29.05;;;-0.30;99.90;;;;;;4994514;28;20034;-47
2024/01/21 12:04:04;;;;;;;67.82;32.15;;;-0.20;99.90;;;;;;4993553;28;20407;-47
2024/01/21 12:06:37;;;;;;;60.53;33.40;;;0.00;99.90;;;;;;4994779;28;20381;-49
2024/01/21 12:09:03;;;;;;;62.30;31.20;;;0.10;99.90;;;;;;4994599;28;20038;-52
2024/01/21 12:11:33;;;;;;;60.45;29.23;;;0.00;99.90;;;;;;4994257;28;20463;-52
2024/01/21 12:13:59;;;;;;;58.20;29.33;;;0.00;99.90;;;;;;4994190;28;20030;-48
2024/01/21 12:16:25;;;;;;;59.70;31.35;;;0.00;99.90;;;;;;5009495;28;20217;-49
2024/01/21 12:18:51;;;;;;;56.38;28.50;;;0.00;99.90;;;;;;4997770;28;20533;-55
2024/01/21 12:21:16;;;;;;;55.03;28.70;;;0.10;99.90;;;;;;5009909;28;20126;-45
2024/01/21 12:23:43;;;;;;;70.07;30.80;;;0.00;99.90;;;;;;5009821;28;20022;-53